Al-Jouf, Saudi Arabia

5:28 PM AST on October 02, 2014 (GMT +0300)
Al Jouf | Change Station
CLOSE
Current Station
Airport
Location: Al-Jouf,
Elevation: 2260 ft
Nearby Weather Stations

Elev 2260 ft 29.79 °N, 40.10 °E | Updated 28 minutes ago

Clear
Clear
88 °F
Feels Like 88 °F
N
18
Wind Variable Wind from West

Today
High -- | Low -- °F
--% Chance of Precip.
Yesterday
High -- | Low -- °F
Precip. -- in
6:13 AM 6:04 PM
First Quarter, 59% visible
Pressure 29.95 in
Visibility -9999.0 miles
Clouds
Dew Point 39 °F
Humidity 18%
Rainfall 0.00 in
Snow Depth Not available.
UV Not available.
Pollen Not available.
Air Quality Not available.
Flu Activity Not available.
METAR OESK 021400Z 27016KT CAVOK 31/04 Q1014 NOSIG

More Conditions Fewer Conditions

Pressure 29.95 in
Visibility -9999.0 miles
Clouds
Dew Point 39 °F
Humidity 18%
Rainfall 0.00 in
Snow Depth Not available.
UV Not available.
Pollen Not available.
Air Quality Not available.
Flu Activity Not available.
METAR OESK 021400Z 27016KT CAVOK 31/04 Q1014 NOSIG

More Conditions Fewer Conditions

10-Day Weather Forecast

Almanac

Astronomy

Oct. 02, 2014 Rise Set
Actual Time 6:13 AM AST 6:04 PM AST
Civil Twilight 5:49 AM AST 6:28 PM AST
Nautical Twilight 5:21 AM AST 6:55 PM AST
Astronomical Twilight 4:54 AM AST 7:23 PM AST
Moon 1:29 PM AST No Moon Set
Length of Visible Light 12h 38m
Length of Day
11h 51m
Tomorrow will be 1m 46s shorter.
First Quarter, 59% of the Moon is Illuminated
Today
First Quarter
Oct 8
Full
Oct 15
Last Quarter
Oct 23
New
Oct 30
First Quarter

Today's Extremes

Country Highs Country Lows

Community

WunderPhotos

Upload Photos

1,758,250 photos uploaded!

WunderBlogs® & News

By Dr. Jeff Masters
Director of Meteorology, Weather Underground
By Kari Strenfel
Meteorologist, Weather Underground
By Christopher C. Burt
Weather Historian, Weather Underground
October 2, 2014
October 2, 2014
October 2, 2014

Nearby

Snow Depth

Not available.

Earthquake Activity

City Distance Mag. Time & Date
No recent earthquake activity has been reported nearby.
Minimum magnitude displayed is 2.5.

Coastal Water Temperatures

Place Temperature
No Stations Reporting

Nearby Weather Stations